createdAt,value
2024-02-12T00:00:16.595Z,33.791146
2024-02-12T00:05:16.842Z,33.446829
2024-02-12T00:10:16.503Z,33.290383
2024-02-12T00:15:16.637Z,33.320736
2024-02-12T00:20:16.681Z,33.512534
2024-02-12T00:25:16.659Z,33.441040
2024-02-12T00:30:16.603Z,33.441040
2024-02-12T00:35:16.702Z,33.441040
2024-02-12T00:40:16.598Z,33.441040
2024-02-12T00:45:16.931Z,33.608431
2024-02-12T00:50:16.842Z,33.608431
2024-02-12T00:55:16.687Z,33.153831
2024-02-12T01:00:16.729Z,33.153831
2024-02-12T01:05:16.825Z,33.416635
2024-02-12T01:10:16.663Z,33.578563
2024-02-12T01:15:16.693Z,33.194322
2024-02-12T01:20:16.859Z,33.194322
2024-02-12T01:25:16.734Z,32.841227
2024-02-12T01:30:16.714Z,32.937131
2024-02-12T01:35:16.760Z,32.745322
2024-02-12T01:40:16.818Z,33.350609
2024-02-12T01:45:17.164Z,33.405645
2024-02-12T01:50:17.362Z,33.552148
2024-02-12T01:55:16.792Z,33.455617
2024-02-12T02:00:16.977Z,33.694014
2024-02-12T02:05:16.952Z,33.831354
2024-02-12T02:10:16.941Z,33.637685
2024-02-12T02:15:16.865Z,33.113901
2024-02-12T02:20:16.905Z,32.683338
2024-02-12T02:25:16.834Z,32.683338
2024-02-12T02:30:18.313Z,32.779876
2024-02-12T02:35:17.097Z,33.210589
2024-02-12T02:40:16.928Z,33.210589
2024-02-12T02:45:17.338Z,33.210589
2024-02-12T02:50:16.937Z,33.017213
2024-02-12T02:55:16.884Z,32.683338
2024-02-12T03:00:16.921Z,32.345451
2024-02-12T03:05:16.999Z,32.249065
2024-02-12T03:10:16.961Z,32.393721
2024-02-12T03:15:17.190Z,32.104097
2024-02-12T03:20:17.008Z,31.814466
2024-02-12T03:25:17.485Z,32.050293
2024-02-12T03:30:17.261Z,31.856900
2024-02-12T03:35:17.098Z,31.663504
2024-02-12T03:40:16.966Z,31.470105
2024-02-12T03:45:17.185Z,31.700842
2024-02-12T03:50:17.104Z,32.121487
2024-02-12T03:55:17.088Z,32.024491
2024-02-12T04:00:17.052Z,31.927495
2024-02-12T04:05:17.506Z,31.733500
2024-02-12T04:10:17.196Z,31.636502
2024-02-12T04:15:17.340Z,31.539503
2024-02-12T04:20:17.165Z,31.442504
2024-02-12T04:25:17.154Z,31.539503
2024-02-12T04:30:17.188Z,31.442504
2024-02-12T04:35:17.172Z,31.345503
2024-02-12T04:40:17.148Z,31.761588
2024-02-12T04:45:17.271Z,31.955876
2024-02-12T04:50:17.158Z,31.955876
2024-02-12T04:55:17.226Z,31.955876
2024-02-12T05:00:16.196Z,31.955876
2024-02-12T05:05:16.235Z,31.955876
2024-02-12T05:10:16.375Z,31.955876
2024-02-12T05:15:16.276Z,32.053020
2024-02-12T05:20:17.797Z,32.150162
2024-02-12T05:25:16.198Z,32.053020
2024-02-12T05:30:16.351Z,31.955876
2024-02-12T05:35:16.295Z,32.053020
2024-02-12T05:40:16.283Z,32.150162
2024-02-12T05:45:16.340Z,31.636502
2024-02-12T05:50:16.328Z,31.539503
2024-02-12T05:55:16.340Z,31.442504
2024-02-12T06:00:16.372Z,31.539503
2024-02-12T06:05:16.494Z,31.345503
2024-02-12T06:10:16.474Z,31.248502
2024-02-12T06:15:16.337Z,31.567297
2024-02-12T06:20:16.419Z,31.470150
2024-02-12T06:25:16.521Z,31.470150
2024-02-12T06:30:16.404Z,31.151501
2024-02-12T06:35:16.555Z,31.151501
2024-02-12T06:40:16.462Z,31.151501
2024-02-12T06:45:16.668Z,31.470150
2024-02-12T06:50:16.455Z,31.470150
2024-02-12T06:55:16.369Z,31.470150
2024-02-12T07:00:16.423Z,31.470150
2024-02-12T07:05:16.609Z,31.567297
2024-02-12T07:10:16.654Z,31.567297
2024-02-12T07:15:16.525Z,31.567297
2024-02-12T07:20:16.563Z,31.664443
2024-02-12T07:25:16.894Z,31.664443
2024-02-12T07:30:16.519Z,31.151501
2024-02-12T07:35:16.724Z,31.054498
2024-02-12T07:40:16.523Z,31.275855
2024-02-12T07:45:16.551Z,31.178707
2024-02-12T07:50:16.601Z,30.569476
2024-02-12T07:55:16.584Z,30.472470
2024-02-12T08:00:17.006Z,30.692955
2024-02-12T08:05:17.191Z,30.595803
2024-02-12T08:10:16.541Z,30.401496
2024-02-12T08:15:16.636Z,30.498650
2024-02-12T08:20:16.732Z,30.812275
2024-02-12T08:25:22.183Z,30.401496
2024-02-12T08:30:16.629Z,30.207187
2024-02-12T08:35:16.797Z,29.915718
2024-02-12T08:40:16.671Z,30.033886
2024-02-12T08:45:16.787Z,29.741980
2024-02-12T08:50:17.162Z,29.450068
2024-02-12T08:55:16.662Z,29.158151
2024-02-12T09:00:16.733Z,28.555455
2024-02-12T09:05:17.123Z,28.574300
2024-02-12T09:10:18.181Z,28.282366
2024-02-12T09:15:16.621Z,28.393924
2024-02-12T09:20:16.978Z,28.199015
2024-02-12T09:25:16.845Z,28.306362
2024-02-12T09:30:16.654Z,28.111170
2024-02-12T09:35:16.891Z,27.915976
2024-02-12T09:40:17.523Z,27.921192
2024-02-12T09:45:16.777Z,27.823455
2024-02-12T09:50:17.148Z,28.020256
2024-02-12T09:55:16.876Z,28.118129
2024-02-12T10:00:16.751Z,28.216002
2024-02-12T10:05:17.101Z,28.313874
2024-02-12T10:10:16.939Z,28.411746
2024-02-12T10:15:16.810Z,28.411746
2024-02-12T10:20:16.868Z,28.801705
2024-02-12T10:25:17.007Z,29.193725
2024-02-12T10:30:17.032Z,29.389732
2024-02-12T10:35:17.108Z,29.781742
2024-02-12T10:40:17.055Z,29.879767
2024-02-12T10:45:17.059Z,29.680367
2024-02-12T10:50:16.951Z,29.875821
2024-02-12T10:55:16.896Z,29.875821
2024-02-12T11:00:17.091Z,29.778094
2024-02-12T11:05:17.022Z,29.778094
2024-02-12T11:10:17.059Z,29.680367
2024-02-12T11:15:17.042Z,29.680367
2024-02-12T11:20:17.237Z,29.680367
2024-02-12T11:25:21.959Z,29.387183
2024-02-12T11:30:17.222Z,29.093994
2024-02-12T11:35:17.036Z,28.800800
2024-02-12T11:40:16.974Z,28.605335
2024-02-12T11:45:17.023Z,28.312134
2024-02-12T11:50:17.067Z,28.018928
2024-02-12T11:55:17.043Z,27.823455
2024-02-12T12:00:17.043Z,27.824507
2024-02-12T12:05:17.207Z,27.726632
2024-02-12T12:10:17.050Z,27.628757
2024-02-12T12:15:17.235Z,27.919632
2024-02-12T12:20:17.383Z,28.115651
2024-02-12T12:25:17.184Z,28.409677
2024-02-12T12:30:17.168Z,28.703698
2024-02-12T12:35:17.291Z,28.411746
2024-02-12T12:40:17.295Z,28.607489
2024-02-12T12:45:17.356Z,28.507602
2024-02-12T12:50:17.407Z,28.703068
2024-02-12T12:55:17.283Z,28.898532
2024-02-12T13:00:17.181Z,29.191724
2024-02-12T13:05:17.383Z,29.184698
2024-02-12T13:10:17.438Z,29.379878
2024-02-12T13:15:17.429Z,29.575056
2024-02-12T13:20:17.287Z,29.770231
2024-02-12T13:25:17.276Z,29.965404
2024-02-12T13:30:17.385Z,30.062990
2024-02-12T13:35:17.502Z,30.355744
2024-02-12T13:40:17.448Z,30.245446
2024-02-12T13:45:17.443Z,30.635213
2024-02-12T13:50:17.543Z,30.714979
2024-02-12T13:55:17.592Z,30.692955
2024-02-12T14:00:35.330Z,31.081558
2024-02-12T14:05:17.549Z,30.957495
2024-02-12T14:10:17.353Z,31.054498
2024-02-12T14:15:59.641Z,30.829170
2024-02-12T14:20:17.396Z,31.022880
2024-02-12T14:25:17.371Z,31.119733
2024-02-12T14:30:17.363Z,31.313439
2024-02-12T14:35:17.581Z,30.986594
2024-02-12T14:40:17.389Z,31.083298
2024-02-12T14:45:17.398Z,31.180001
2024-02-12T14:50:17.638Z,31.083298
2024-02-12T14:55:19.108Z,30.986594
2024-02-12T15:00:17.446Z,31.180001
2024-02-12T15:05:17.697Z,31.373404
2024-02-12T15:10:17.573Z,31.138633
2024-02-12T15:15:15.439Z,31.331732
2024-02-12T15:20:15.520Z,31.524828
2024-02-12T15:25:17.259Z,31.911011
2024-02-12T15:30:15.601Z,31.426040
2024-02-12T15:35:16.282Z,31.272904
2024-02-12T15:40:15.698Z,31.368983
2024-02-12T15:45:15.549Z,31.810981
2024-02-12T15:50:15.810Z,32.003446
2024-02-12T15:55:15.717Z,32.441836
2024-02-12T16:00:15.917Z,31.561139
2024-02-12T16:05:17.065Z,31.018885
2024-02-12T16:10:15.654Z,31.176823
2024-02-12T16:15:15.755Z,30.827040
2024-02-12T16:20:15.717Z,30.922963
2024-02-12T16:25:15.769Z,30.855857
2024-02-12T16:30:15.703Z,30.592009
2024-02-12T16:35:17.247Z,30.513992
2024-02-12T16:40:15.738Z,30.227692
2024-02-12T16:45:15.755Z,30.323126
2024-02-12T16:50:16.167Z,29.858533
2024-02-12T16:55:15.728Z,29.484391
2024-02-12T17:00:15.645Z,30.049069
2024-02-12T17:05:15.993Z,30.239602
2024-02-12T17:10:16.408Z,31.181989
2024-02-12T17:15:15.872Z,32.579389
2024-02-12T17:20:15.751Z,31.858959
2024-02-12T17:25:15.767Z,32.144697
2024-02-12T17:30:15.860Z,31.956678
2024-02-12T17:35:15.844Z,32.525666
2024-02-12T17:40:15.757Z,33.001854
2024-02-12T17:45:16.014Z,34.044272
2024-02-12T17:50:15.837Z,34.430260
2024-02-12T17:55:15.789Z,34.620696
2024-02-12T18:00:15.948Z,34.715912
2024-02-12T18:05:16.016Z,34.811128
2024-02-12T18:10:15.853Z,35.096768
2024-02-12T18:15:15.853Z,35.382399
2024-02-12T18:20:15.949Z,34.903450
2024-02-12T18:25:16.235Z,35.001556
2024-02-12T18:30:15.979Z,34.902779
2024-02-12T18:35:15.950Z,34.616619
2024-02-12T18:40:16.046Z,34.330450
2024-02-12T18:45:16.042Z,34.606263
2024-02-12T18:50:16.305Z,34.425841
2024-02-12T18:55:17.734Z,34.892930
2024-02-12T19:00:16.011Z,34.701820
2024-02-12T19:05:16.158Z,34.139666
2024-02-12T19:10:15.908Z,34.415147
2024-02-12T19:15:16.283Z,34.044272
2024-02-12T19:20:16.616Z,34.398341
2024-02-12T19:25:16.018Z,33.746211
2024-02-12T19:30:16.065Z,34.015432
2024-02-12T19:35:16.256Z,33.536774
2024-02-12T19:40:17.298Z,33.704327
2024-02-12T19:45:16.326Z,33.416635
2024-02-12T19:50:16.051Z,33.416635
2024-02-12T19:55:16.527Z,33.578563
2024-02-12T20:00:16.099Z,33.033033
2024-02-12T20:05:16.270Z,32.329727
2024-02-12T20:10:16.100Z,32.923751
2024-02-12T20:15:16.107Z,33.116511
2024-02-12T20:20:16.253Z,33.212890
2024-02-12T20:25:16.147Z,32.827369
2024-02-12T20:30:16.180Z,33.166018
2024-02-12T20:35:16.697Z,33.455617
2024-02-12T20:40:16.689Z,33.309268
2024-02-12T20:45:16.192Z,33.309268
2024-02-12T20:50:16.269Z,33.405645
2024-02-12T20:55:16.521Z,33.309268
2024-02-12T21:00:16.629Z,33.212890
2024-02-12T21:05:16.339Z,32.827369
2024-02-12T21:10:16.239Z,32.876413
2024-02-12T21:15:16.290Z,32.683338
2024-02-12T21:20:16.290Z,32.920525
2024-02-12T21:25:16.278Z,33.056662
2024-02-12T21:30:16.190Z,32.862982
2024-02-12T21:35:16.280Z,33.091406
2024-02-12T21:40:17.067Z,33.091406
2024-02-12T21:45:16.356Z,32.994417
2024-02-12T21:50:16.347Z,33.121553
2024-02-12T21:55:16.426Z,33.121553
2024-02-12T22:00:16.316Z,33.244490
2024-02-12T22:05:16.538Z,33.244490
2024-02-12T22:10:16.336Z,33.147209
2024-02-12T22:15:16.303Z,33.363324
2024-02-12T22:20:16.482Z,33.265899
2024-02-12T22:25:16.368Z,33.168474
2024-02-12T22:30:16.440Z,33.283012
2024-02-12T22:35:16.987Z,33.185444
2024-02-12T22:40:16.430Z,33.185444
2024-02-12T22:45:16.444Z,33.393630
2024-02-12T22:50:16.773Z,33.295922
2024-02-12T22:55:16.426Z,33.295922
2024-02-12T23:00:16.640Z,33.295922
2024-02-12T23:05:16.498Z,33.500415
2024-02-12T23:10:16.532Z,33.402568
2024-02-12T23:15:16.526Z,33.304721
2024-02-12T23:20:16.564Z,33.109025
2024-02-12T23:25:17.167Z,33.309496
2024-02-12T23:30:16.493Z,33.309496
2024-02-12T23:35:16.607Z,33.211510
2024-02-12T23:40:16.604Z,33.015539
2024-02-12T23:45:16.696Z,32.819565
2024-02-12T23:50:16.763Z,32.721578
2024-02-12T23:55:16.650Z,32.917843
